Archival Weather

Atar

Atar, Mauritania (GQPA)

Report from: Wednesday, December 6, 2023 12:00 PM GMT
Current time: Thursday, April 25, 2024 4:13 AM GMT

Current weather – Weather history – Daily summaries
Weather forecast

Temperature32.0°C (89.6°F)
Heat index30.0°C (85.9°F)
Dew point6.0°C (42.8°F)
Winds 10 kts (5.1 m/s, 11.5 mph) North (360°)
Visibility5 mi. (8 km)
Altimeter30.03 in.Hg (1017 mB)
Relative humidity20 %
Density altitude1,955 ft. (596 m)
Flight conditions Marginal Visual Meteorological Conditions
Raw dataGQPA 061200Z 36010KT 8000 NSC 32/06 Q1017
An error has occurred. This application may no longer respond until reloaded. Reload 🗙